Time;durP1;ratioP1;P1;durP2;ratioP2;P2;SDS_P1;SDS_P2;PMS_P1;PMS_P2;Temp;Humidity;BMP_temperature;BMP_pressure;BME280_temperature;BME280_humidity;BME280_pressure;Samples;Min_cycle;Max_cycle;Signal;HPM_P1;HPM_P2
2022/07/21 00:00:32;;;;;;;11.18;4.60;;;;;;;;;;5021449;28;20029;-83
2022/07/21 00:02:58;;;;;;;9.00;4.82;;;;;;;;;;5039567;28;20060;-82
2022/07/21 00:05:25;;;;;;;16.75;4.55;;;;;;;;;;5038677;28;20037;-84
2022/07/21 00:07:52;;;;;;;9.65;4.45;;;;;;;;;;5020881;28;20057;-84
2022/07/21 00:10:19;;;;;;;10.77;4.50;;;;;;;;;;5038905;28;20494;-84
2022/07/21 00:12:44;;;;;;;8.40;4.07;;;;;;;;;;5038977;28;20029;-84
2022/07/21 00:15:11;;;;;;;13.55;4.18;;;;;;;;;;5038716;28;20040;-83
2022/07/21 00:17:37;;;;;;;10.82;4.10;;;;;;;;;;5039560;28;20646;-84
2022/07/21 00:20:04;;;;;;;7.07;3.83;;;;;;;;;;5020840;28;20036;-83
2022/07/21 00:22:30;;;;;;;8.38;3.90;;;;;;;;;;5021377;28;20025;-84
2022/07/21 00:24:58;;;;;;;8.43;3.80;;;;;;;;;;5037859;28;20033;-84
2022/07/21 00:27:24;;;;;;;9.20;3.95;;;;;;;;;;5037562;28;20044;-84
2022/07/21 00:29:50;;;;;;;9.90;3.90;;;;;;;;;;5020616;28;20044;-84
2022/07/21 00:32:15;;;;;;;8.23;3.50;;;;;;;;;;5037954;28;20037;-83
2022/07/21 00:34:41;;;;;;;6.05;3.30;;;;;;;;;;5037871;28;20038;-84
2022/07/21 00:37:06;;;;;;;11.05;3.95;;;;;;;;;;5038662;28;20097;-84
2022/07/21 00:39:32;;;;;;;6.53;3.63;;;;;;;;;;5039255;28;20091;-83
2022/07/21 00:41:57;;;;;;;5.65;3.65;;;;;;;;;;5037950;28;20506;-84
2022/07/21 00:44:26;;;;;;;6.18;3.60;;;;;;;;;;5019679;28;20116;-84
2022/07/21 00:46:52;;;;;;;7.60;3.80;;;;;;;;;;5037509;28;20037;-82
2022/07/21 00:49:18;;;;;;;6.32;3.60;;;;;;;;;;5038738;28;20077;-84
2022/07/21 00:51:43;;;;;;;12.05;4.15;;;;;;;;;;5038332;28;20036;-84
2022/07/21 00:54:10;;;;;;;7.53;3.70;;;;;;;;;;5020239;28;20528;-83
2022/07/21 00:56:36;;;;;;;9.95;4.18;;;;;;;;;;5038051;28;20486;-84
2022/07/21 00:59:01;;;;;;;5.28;3.33;;;;;;;;;;5020554;28;20084;-83
2022/07/21 01:01:27;;;;;;;11.07;3.80;;;;;;;;;;5038470;28;20095;-83
2022/07/21 01:03:53;;;;;;;10.65;3.58;;;;;;;;;;5037611;28;20037;-84
2022/07/21 01:06:18;;;;;;;10.60;3.88;;;;;;;;;;5019900;28;20091;-84
2022/07/21 01:08:44;;;;;;;13.23;4.10;;;;;;;;;;5037515;28;20041;-84
2022/07/21 01:11:10;;;;;;;8.32;3.58;;;;;;;;;;5019613;28;20076;-83
2022/07/21 01:13:41;;;;;;;6.90;3.33;;;;;;;;;;5020567;28;20033;-83
2022/07/21 01:16:07;;;;;;;7.72;3.53;;;;;;;;;;5037308;28;20076;-83
2022/07/21 01:18:33;;;;;;;8.88;3.47;;;;;;;;;;5020173;28;20036;-84
2022/07/21 01:21:06;;;;;;;6.07;3.30;;;;;;;;;;5037230;28;20398;-83
2022/07/21 01:23:32;;;;;;;;;;;;;;;;;;5038162;28;20037;-84
2022/07/21 01:25:58;;;;;;;5.22;3.80;;;;;;;;;;5036780;28;19967;-83
2022/07/21 01:28:23;;;;;;;7.63;3.78;;;;;;;;;;5038261;28;20084;-84
2022/07/21 01:30:50;;;;;;;6.15;3.70;;;;;;;;;;5020125;28;20367;-84
2022/07/21 01:33:16;;;;;;;7.50;3.67;;;;;;;;;;5037147;28;20060;-83
2022/07/21 01:35:42;;;;;;;5.97;3.63;;;;;;;;;;5037061;28;20541;-84
2022/07/21 01:41:28;;;;;;;11.63;4.13;;;;;;;;;;5037663;28;20061;-84
2022/07/21 01:43:43;;;;;;;6.28;3.58;;;;;;;;;;5037198;28;20041;-84
2022/07/21 01:46:13;;;;;;;9.88;4.03;;;;;;;;;;5019295;28;20040;-84
2022/07/21 01:48:47;;;;;;;8.63;3.65;;;;;;;;;;5035754;28;20029;-84
2022/07/21 01:51:13;;;;;;;10.13;3.63;;;;;;;;;;5020719;28;20444;-84
2022/07/21 01:53:39;;;;;;;7.90;3.80;;;;;;;;;;5037556;28;20041;-84
2022/07/21 01:56:06;;;;;;;7.45;3.58;;;;;;;;;;5036899;28;20405;-84
2022/07/21 01:58:31;;;;;;;7.25;3.38;;;;;;;;;;5019115;28;20033;-84
2022/07/21 02:00:57;;;;;;;8.65;3.60;;;;;;;;;;5037029;28;20064;-84
2022/07/21 02:03:23;;;;;;;8.65;3.60;;;;;;;;;;5037326;28;20084;-84
2022/07/21 02:05:48;;;;;;;5.45;3.60;;;;;;;;;;5018679;28;20045;-85
2022/07/21 02:08:14;;;;;;;7.72;3.50;;;;;;;;;;5037026;28;20060;-84
2022/07/21 02:10:40;;;;;;;7.20;3.30;;;;;;;;;;5036776;28;20128;-84
2022/07/21 02:13:05;;;;;;;9.75;3.72;;;;;;;;;;5037665;28;20101;-84
2022/07/21 02:15:31;;;;;;;5.55;3.80;;;;;;;;;;5036650;28;20089;-84
2022/07/21 02:17:57;;;;;;;6.03;3.50;;;;;;;;;;5036772;28;20112;-84
2022/07/21 02:20:23;;;;;;;5.45;3.40;;;;;;;;;;5037617;28;20034;-84
2022/07/21 02:22:49;;;;;;;7.75;3.53;;;;;;;;;;5037169;28;20044;-84
2022/07/21 02:25:15;;;;;;;6.05;3.55;;;;;;;;;;5036543;28;20398;-85
2022/07/21 02:27:42;;;;;;;5.78;3.65;;;;;;;;;;5036251;28;20076;-84
2022/07/21 02:30:08;;;;;;;6.15;3.72;;;;;;;;;;5019672;28;20041;-84
2022/07/21 02:32:34;;;;;;;5.78;3.30;;;;;;;;;;5037158;28;20405;-84
2022/07/21 02:34:59;;;;;;;6.20;3.63;;;;;;;;;;5036468;28;20041;-83
2022/07/21 02:37:25;;;;;;;4.97;3.42;;;;;;;;;;5019710;28;20033;-84
2022/07/21 02:39:50;;;;;;;5.50;3.10;;;;;;;;;;5019344;28;20052;-84
2022/07/21 02:42:16;;;;;;;17.17;3.53;;;;;;;;;;5036956;28;20487;-84
2022/07/21 02:44:41;;;;;;;6.05;3.60;;;;;;;;;;5039431;28;20049;-84
2022/07/21 02:47:06;;;;;;;4.72;3.70;;;;;;;;;;5040138;28;20037;-84
2022/07/21 02:49:32;;;;;;;4.18;3.33;;;;;;;;;;5040305;28;20032;-85
2022/07/21 02:51:58;;;;;;;5.55;3.67;;;;;;;;;;5040689;28;20057;-84
2022/07/21 02:54:23;;;;;;;5.25;3.70;;;;;;;;;;5040153;28;20041;-84
2022/07/21 02:56:49;;;;;;;6.70;3.75;;;;;;;;;;5038684;28;20069;-84
2022/07/21 02:59:14;;;;;;;7.22;3.38;;;;;;;;;;5040679;28;20079;-85
2022/07/21 03:01:40;;;;;;;6.53;3.83;;;;;;;;;;5005456;28;20124;-83
2022/07/21 03:04:05;;;;;;;6.45;3.53;;;;;;;;;;5039557;28;20038;-82
2022/07/21 03:06:31;;;;;;;6.05;3.90;;;;;;;;;;5022861;28;20505;-84
2022/07/21 03:08:57;;;;;;;8.00;3.63;;;;;;;;;;5039974;28;20063;-84
2022/07/21 03:11:22;;;;;;;5.95;3.67;;;;;;;;;;5039680;28;20029;-84
2022/07/21 03:13:48;;;;;;;6.85;3.72;;;;;;;;;;5022526;28;20037;-84
2022/07/21 03:16:13;;;;;;;6.80;3.80;;;;;;;;;;5038878;28;20048;-84
2022/07/21 03:18:39;;;;;;;7.72;3.80;;;;;;;;;;5021672;28;20036;-84
2022/07/21 03:21:04;;;;;;;7.82;3.60;;;;;;;;;;5039881;28;20438;-84
2022/07/21 03:23:30;;;;;;;6.90;3.60;;;;;;;;;;5039575;28;20033;-84
2022/07/21 03:25:55;;;;;;;9.57;3.88;;;;;;;;;;5039203;28;20108;-85
2022/07/21 03:28:21;;;;;;;6.35;3.63;;;;;;;;;;5022079;28;20041;-84
2022/07/21 03:30:46;;;;;;;6.35;3.97;;;;;;;;;;5039621;28;20037;-84
2022/07/21 03:33:12;;;;;;;4.93;3.80;;;;;;;;;;5039526;28;20061;-84
2022/07/21 03:35:38;;;;;;;6.97;3.60;;;;;;;;;;5038866;28;20410;-84
2022/07/21 03:38:05;;;;;;;7.00;3.90;;;;;;;;;;5039574;28;20565;-84
2022/07/21 03:40:33;;;;;;;5.63;3.80;;;;;;;;;;5039829;28;20406;-85
2022/07/21 03:43:00;;;;;;;7.45;3.85;;;;;;;;;;5039543;28;20060;-84
2022/07/21 03:45:29;;;;;;;5.82;3.80;;;;;;;;;;5038817;28;20039;-83
2022/07/21 03:47:56;;;;;;;6.10;3.85;;;;;;;;;;5039881;28;20510;-83
2022/07/21 03:50:21;;;;;;;6.00;3.55;;;;;;;;;;5021189;28;20037;-84
2022/07/21 03:52:47;;;;;;;7.93;3.90;;;;;;;;;;5039836;28;20042;-83
2022/07/21 03:55:17;;;;;;;7.10;3.80;;;;;;;;;;5037795;28;20041;-84
2022/07/21 03:57:55;;;;;;;9.75;3.63;;;;;;;;;;5022899;28;20037;-82
2022/07/21 04:00:22;;;;;;;8.75;4.20;;;;;;;;;;5040699;28;20049;-83
2022/07/21 04:02:47;;;;;;;6.32;4.03;;;;;;;;;;5041423;28;20410;-84
2022/07/21 04:05:15;;;;;;;7.80;4.60;;;;;;;;;;5038542;28;20042;-84
2022/07/21 04:07:42;;;;;;;9.45;4.35;;;;;;;;;;5038583;28;20029;-84
2022/07/21 04:10:10;;;;;;;7.07;4.43;;;;;;;;;;5038261;28;20043;-84
2022/07/21 04:12:36;;;;;;;6.60;4.40;;;;;;;;;;5021437;28;20037;-84
2022/07/21 04:15:02;;;;;;;5.65;4.47;;;;;;;;;;5037993;28;20036;-84
2022/07/21 04:17:28;;;;;;;8.20;4.40;;;;;;;;;;5020073;28;20075;-84
2022/07/21 04:19:53;;;;;;;6.28;4.20;;;;;;;;;;5039296;28;20030;-84
2022/07/21 04:22:18;;;;;;;8.05;5.82;;;;;;;;;;5038826;28;20076;-85
2022/07/21 04:24:44;;;;;;;7.60;4.60;;;;;;;;;;5019975;28;20048;-86
2022/07/21 04:27:09;;;;;;;9.98;5.03;;;;;;;;;;5020466;28;20048;-85
2022/07/21 04:29:35;;;;;;;5.82;4.40;;;;;;;;;;5021150;28;20044;-84
2022/07/21 04:32:00;;;;;;;8.75;4.75;;;;;;;;;;5038118;28;20112;-84
2022/07/21 04:34:28;;;;;;;9.02;5.05;;;;;;;;;;5037788;28;20494;-84
2022/07/21 04:36:54;;;;;;;7.78;4.70;;;;;;;;;;5037773;28;20033;-83
2022/07/21 04:39:19;;;;;;;10.95;5.22;;;;;;;;;;5038689;28;20082;-84
2022/07/21 04:41:45;;;;;;;7.47;4.57;;;;;;;;;;5038040;28;20029;-83
2022/07/21 04:44:10;;;;;;;8.85;4.40;;;;;;;;;;5046433;28;20045;-81
2022/07/21 04:46:36;;;;;;;7.95;4.43;;;;;;;;;;5031007;28;20041;-83
2022/07/21 04:49:01;;;;;;;8.82;4.28;;;;;;;;;;5045352;28;20033;-85
2022/07/21 04:51:27;;;;;;;7.18;4.90;;;;;;;;;;5042382;28;20044;-84
2022/07/21 04:53:52;;;;;;;7.22;4.80;;;;;;;;;;5022311;28;20073;-85
2022/07/21 04:56:18;;;;;;;8.80;4.38;;;;;;;;;;5037941;28;20491;-85
2022/07/21 04:58:43;;;;;;;7.88;4.55;;;;;;;;;;5038343;28;20021;-85
2022/07/21 05:01:09;;;;;;;13.27;4.50;;;;;;;;;;5020749;28;20060;-85
2022/07/21 05:03:34;;;;;;;8.13;4.43;;;;;;;;;;5005078;28;20037;-85
2022/07/21 05:06:00;;;;;;;6.72;4.53;;;;;;;;;;5036230;28;20041;-82
2022/07/21 05:08:27;;;;;;;6.63;5.03;;;;;;;;;;5036872;28;20037;-85
2022/07/21 05:10:52;;;;;;;8.60;5.47;;;;;;;;;;5019794;28;20041;-85
2022/07/21 05:13:18;;;;;;;7.65;4.97;;;;;;;;;;5037230;28;20038;-83
2022/07/21 05:15:43;;;;;;;7.75;5.18;;;;;;;;;;5018921;28;20052;-85
2022/07/21 05:18:09;;;;;;;13.52;5.15;;;;;;;;;;5037519;28;20048;-85
2022/07/21 05:20:34;;;;;;;6.28;5.05;;;;;;;;;;5037443;28;20026;-84
2022/07/21 05:23:01;;;;;;;9.10;4.65;;;;;;;;;;5019937;28;20577;-84
2022/07/21 05:25:28;;;;;;;6.88;5.15;;;;;;;;;;5018789;28;20080;-86
2022/07/21 05:27:54;;;;;;;12.13;5.60;;;;;;;;;;5036726;28;20103;-84
2022/07/21 05:30:20;;;;;;;10.63;5.30;;;;;;;;;;5018223;28;20037;-84
2022/07/21 05:32:45;;;;;;;10.13;5.25;;;;;;;;;;5036491;28;20367;-84
2022/07/21 05:35:11;;;;;;;10.68;5.30;;;;;;;;;;5035909;28;20040;-83
2022/07/21 05:37:40;;;;;;;9.55;4.93;;;;;;;;;;5018422;28;20037;-84
2022/07/21 05:40:07;;;;;;;7.63;5.20;;;;;;;;;;5036391;28;20080;-85
2022/07/21 05:42:33;;;;;;;8.20;4.72;;;;;;;;;;5036823;28;20048;-82
2022/07/21 05:45:00;;;;;;;8.50;5.00;;;;;;;;;;5036525;28;20037;-84
2022/07/21 05:47:25;;;;;;;9.73;5.03;;;;;;;;;;5037812;28;20057;-85
2022/07/21 05:49:51;;;;;;;9.68;5.50;;;;;;;;;;5020110;28;20034;-84
2022/07/21 05:52:16;;;;;;;9.40;4.93;;;;;;;;;;5037441;28;20040;-84
2022/07/21 05:54:41;;;;;;;8.98;5.53;;;;;;;;;;5037239;28;20033;-84
2022/07/21 05:57:07;;;;;;;7.53;5.10;;;;;;;;;;5037371;28;20465;-83
2022/07/21 05:59:33;;;;;;;8.73;4.80;;;;;;;;;;5036828;28;20033;-85
2022/07/21 06:01:58;;;;;;;7.28;5.03;;;;;;;;;;5019841;28;20061;-84
2022/07/21 06:04:24;;;;;;;7.10;4.50;;;;;;;;;;5037017;28;20074;-85
2022/07/21 06:06:50;;;;;;;7.45;4.70;;;;;;;;;;5036856;28;20034;-83
2022/07/21 06:09:15;;;;;;;5.35;3.83;;;;;;;;;;5056212;28;20029;-85
2022/07/21 06:11:41;;;;;;;5.60;4.18;;;;;;;;;;5057608;28;20076;-84
2022/07/21 06:14:06;;;;;;;5.72;4.07;;;;;;;;;;5038906;28;20043;-81
2022/07/21 06:16:32;;;;;;;6.70;3.80;;;;;;;;;;5038936;28;20041;-85
2022/07/21 06:18:57;;;;;;;7.20;3.97;;;;;;;;;;5041221;28;20060;-84
2022/07/21 06:21:23;;;;;;;6.75;3.80;;;;;;;;;;5042735;28;20521;-84
2022/07/21 06:23:49;;;;;;;6.57;4.00;;;;;;;;;;5060161;28;20064;-86
2022/07/21 06:26:14;;;;;;;6.07;3.90;;;;;;;;;;5059724;28;20397;-85
2022/07/21 06:28:41;;;;;;;4.72;3.50;;;;;;;;;;5058740;28;20112;-85
2022/07/21 06:31:07;;;;;;;5.32;3.50;;;;;;;;;;5060267;28;20036;-83
2022/07/21 06:33:32;;;;;;;6.70;4.10;;;;;;;;;;5059970;28;20112;-85
2022/07/21 06:35:57;;;;;;;9.90;3.92;;;;;;;;;;5060076;28;20090;-84
2022/07/21 06:38:23;;;;;;;10.15;4.00;;;;;;;;;;5059759;28;20114;-85
2022/07/21 06:40:49;;;;;;;5.57;3.90;;;;;;;;;;5060442;28;20064;-85
2022/07/21 06:43:14;;;;;;;8.02;4.05;;;;;;;;;;5060064;28;20052;-86
2022/07/21 06:45:40;;;;;;;8.43;4.80;;;;;;;;;;5042348;28;20037;-85
2022/07/21 06:48:07;;;;;;;5.50;4.40;;;;;;;;;;5042142;28;20604;-85
2022/07/21 06:50:33;;;;;;;6.78;4.65;;;;;;;;;;5060208;28;20041;-83
2022/07/21 06:52:59;;;;;;;6.57;4.65;;;;;;;;;;5043555;28;20036;-85
2022/07/21 06:55:24;;;;;;;8.50;4.82;;;;;;;;;;5060475;28;20036;-85
2022/07/21 06:57:50;;;;;;;6.80;4.90;;;;;;;;;;5060024;28;20088;-85
2022/07/21 07:00:16;;;;;;;8.43;4.88;;;;;;;;;;5042966;28;20099;-88
2022/07/21 07:02:41;;;;;;;8.07;4.85;;;;;;;;;;5061560;28;20033;-86
2022/07/21 07:05:07;;;;;;;6.50;5.20;;;;;;;;;;5059285;28;20511;-85
2022/07/21 07:07:33;;;;;;;7.88;5.15;;;;;;;;;;5060966;28;20025;-86
2022/07/21 07:09:59;;;;;;;10.52;5.20;;;;;;;;;;5061251;28;20033;-84
2022/07/21 07:12:25;;;;;;;10.70;5.20;;;;;;;;;;5060543;28;20040;-86
2022/07/21 07:14:50;;;;;;;8.18;5.18;;;;;;;;;;5059907;28;20045;-87
2022/07/21 07:17:18;;;;;;;8.73;5.22;;;;;;;;;;5060284;28;20032;-84
2022/07/21 07:19:45;;;;;;;9.60;5.68;;;;;;;;;;5060267;28;20145;-87
2022/07/21 07:22:10;;;;;;;9.60;5.18;;;;;;;;;;5060794;28;20029;-86
2022/07/21 07:24:36;;;;;;;9.38;5.95;;;;;;;;;;5059987;28;20508;-85
2022/07/21 07:27:02;;;;;;;6.57;5.70;;;;;;;;;;5060887;28;20047;-86
2022/07/21 07:29:28;;;;;;;10.27;6.10;;;;;;;;;;5041740;28;20033;-86
2022/07/21 07:31:55;;;;;;;10.63;6.07;;;;;;;;;;5060554;28;20040;-86
2022/07/21 07:34:21;;;;;;;10.68;6.38;;;;;;;;;;5059540;28;20037;-86
2022/07/21 07:36:46;;;;;;;13.57;6.47;;;;;;;;;;5041999;28;20094;-86
2022/07/21 07:39:15;;;;;;;11.68;7.07;;;;;;;;;;5060551;28;20171;-85
2022/07/21 07:41:41;;;;;;;8.82;6.53;;;;;;;;;;5059943;28;20037;-86
2022/07/21 07:44:07;;;;;;;13.15;6.72;;;;;;;;;;5059746;28;20028;-86
2022/07/21 07:46:33;;;;;;;13.15;7.72;;;;;;;;;;5060019;28;20037;-86
2022/07/21 07:48:59;;;;;;;8.63;7.00;;;;;;;;;;5060068;28;20021;-86
2022/07/21 07:51:25;;;;;;;12.88;7.70;;;;;;;;;;5025753;28;20044;-84
2022/07/21 07:53:50;;;;;;;11.85;7.63;;;;;;;;;;5041719;28;20032;-85
2022/07/21 07:56:16;;;;;;;10.52;7.82;;;;;;;;;;5059663;28;20036;-85
2022/07/21 07:58:41;;;;;;;14.65;7.82;;;;;;;;;;5040967;28;20037;-87
2022/07/21 08:01:07;;;;;;;9.70;7.95;;;;;;;;;;5058840;28;20577;-85
2022/07/21 08:03:33;;;;;;;13.10;7.80;;;;;;;;;;5060451;28;20124;-86
2022/07/21 08:06:03;;;;;;;10.63;7.45;;;;;;;;;;5058863;28;20501;-84
2022/07/21 08:08:32;;;;;;;10.38;7.70;;;;;;;;;;5055967;28;20039;-85
2022/07/21 08:10:58;;;;;;;10.98;8.27;;;;;;;;;;5058206;28;20116;-83
2022/07/21 08:13:24;;;;;;;16.00;8.38;;;;;;;;;;5058461;28;20052;-86
2022/07/21 08:15:50;;;;;;;13.38;8.13;;;;;;;;;;5059077;28;20029;-85
2022/07/21 08:18:17;;;;;;;12.57;8.10;;;;;;;;;;5057237;28;20431;-86
2022/07/21 08:20:43;;;;;;;12.93;8.52;;;;;;;;;;5040827;28;20405;-85
2022/07/21 08:23:09;;;;;;;9.70;7.85;;;;;;;;;;5059156;28;20033;-85
2022/07/21 08:25:34;;;;;;;16.70;8.57;;;;;;;;;;5040781;28;20099;-85
2022/07/21 08:28:00;;;;;;;12.23;7.60;;;;;;;;;;5040653;28;20032;-85
2022/07/21 08:30:26;;;;;;;14.32;7.90;;;;;;;;;;5040629;28;20037;-85
2022/07/21 08:32:51;;;;;;;10.95;7.97;;;;;;;;;;5040463;28;20090;-85
2022/07/21 08:35:17;;;;;;;11.27;8.27;;;;;;;;;;5039677;28;20036;-85
2022/07/21 08:37:53;;;;;;;11.27;8.60;;;;;;;;;;5058564;28;20134;-83
2022/07/21 08:40:22;;;;;;;12.32;8.50;;;;;;;;;;5040775;28;20130;-85
2022/07/21 08:42:48;;;;;;;13.40;8.25;;;;;;;;;;5058588;28;20044;-86
2022/07/21 08:45:13;;;;;;;10.77;8.55;;;;;;;;;;5057062;28;20170;-83
2022/07/21 08:47:39;;;;;;;11.32;8.55;;;;;;;;;;5057142;28;20067;-84
2022/07/21 08:50:08;;;;;;;12.45;9.50;;;;;;;;;;5038983;28;20036;-84
2022/07/21 08:52:33;;;;;;;12.38;8.70;;;;;;;;;;5057518;28;20500;-85
2022/07/21 08:54:59;;;;;;;12.48;8.90;;;;;;;;;;5055756;28;20025;-84
2022/07/21 08:57:25;;;;;;;14.13;8.90;;;;;;;;;;5057381;28;20033;-84
2022/07/21 08:59:51;;;;;;;11.73;8.63;;;;;;;;;;5057181;28;20048;-85
2022/07/21 09:02:31;;;;;;;11.02;8.35;;;;;;;;;;5039881;28;20119;-85
2022/07/21 09:04:57;;;;;;;12.57;8.20;;;;;;;;;;5057272;28;20096;-86
2022/07/21 09:07:23;;;;;;;11.88;8.05;;;;;;;;;;5039802;28;20114;-85
2022/07/21 09:10:01;;;;;;;10.65;8.15;;;;;;;;;;5056452;28;20044;-85
2022/07/21 09:12:28;;;;;;;12.88;8.38;;;;;;;;;;5040365;28;20420;-85
2022/07/21 09:15:18;;;;;;;13.35;8.75;;;;;;;;;;5057542;28;20410;-85
2022/07/21 09:17:44;;;;;;;12.45;7.90;;;;;;;;;;5038118;28;20041;-85
2022/07/21 09:20:24;;;;;;;12.75;8.30;;;;;;;;;;5058324;28;20076;-85
2022/07/21 09:23:09;;;;;;;11.73;8.25;;;;;;;;;;5039634;28;20052;-85
2022/07/21 09:25:38;;;;;;;11.43;8.05;;;;;;;;;;5039964;28;20044;-86
2022/07/21 09:28:07;;;;;;;12.73;8.18;;;;;;;;;;5057266;28;20052;-86
2022/07/21 09:30:51;;;;;;;12.27;8.50;;;;;;;;;;5057510;28;20045;-85
2022/07/21 09:33:21;;;;;;;12.85;8.23;;;;;;;;;;5057687;28;20374;-86
2022/07/21 09:36:00;;;;;;;11.32;8.25;;;;;;;;;;5038766;28;20047;-86
2022/07/21 09:38:28;;;;;;;11.45;8.38;;;;;;;;;;5039567;28;20087;-85
2022/07/21 09:40:53;;;;;;;10.30;8.32;;;;;;;;;;5022501;28;20033;-84
2022/07/21 09:43:41;;;;;;;12.38;8.35;;;;;;;;;;5039980;28;20041;-85
2022/07/21 09:46:15;;;;;;;13.55;8.52;;;;;;;;;;5056363;28;20051;-85
2022/07/21 09:48:42;;;;;;;10.18;8.40;;;;;;;;;;5056167;28;20062;-83
2022/07/21 09:51:28;;;;;;;11.20;8.93;;;;;;;;;;5038844;28;20025;-84
2022/07/21 09:54:04;;;;;;;11.15;8.50;;;;;;;;;;5055036;28;20037;-85
2022/07/21 09:56:40;;;;;;;12.50;8.70;;;;;;;;;;5055662;28;20087;-84
2022/07/21 09:59:08;;;;;;;14.45;8.70;;;;;;;;;;5056385;28;20397;-85
2022/07/21 10:01:35;;;;;;;7.10;5.75;;;;;;;;;;5057233;28;20051;-84
2022/07/21 10:04:02;;;;;;;11.23;7.65;;;;;;;;;;5057605;28;20033;-84
2022/07/21 10:06:34;;;;;;;9.38;7.03;;;;;;;;;;5025001;28;20045;-84
2022/07/21 10:09:01;;;;;;;10.05;7.40;;;;;;;;;;5059372;28;20067;-84
2022/07/21 10:11:28;;;;;;;10.07;7.55;;;;;;;;;;5040717;28;20056;-84
2022/07/21 10:13:54;;;;;;;9.65;7.40;;;;;;;;;;5060753;28;20040;-84
2022/07/21 10:16:20;;;;;;;14.20;8.73;;;;;;;;;;5041793;28;20044;-85
2022/07/21 10:19:23;;;;;;;12.32;8.93;;;;;;;;;;5036039;28;20033;-85
2022/07/21 10:21:58;;;;;;;12.40;8.43;;;;;;;;;;5038915;28;20048;-85
2022/07/21 10:24:28;;;;;;;15.50;8.35;;;;;;;;;;5056565;28;20052;-85
2022/07/21 10:27:12;;;;;;;11.88;9.23;;;;;;;;;;5039432;28;20032;-85
2022/07/21 10:29:47;;;;;;;10.55;8.85;;;;;;;;;;5056559;28;20060;-85
2022/07/21 10:32:17;;;;;;;13.13;9.65;;;;;;;;;;5039126;28;20124;-85
2022/07/21 10:34:43;;;;;;;19.30;8.98;;;;;;;;;;5056268;28;20517;-85
2022/07/21 10:37:09;;;;;;;13.27;9.02;;;;;;;;;;5057021;28;20112;-85
2022/07/21 10:39:36;;;;;;;12.90;8.75;;;;;;;;;;5056771;28;20029;-85
2022/07/21 10:42:15;;;;;;;13.60;8.68;;;;;;;;;;5057353;28;20037;-85
2022/07/21 10:44:43;;;;;;;11.48;9.15;;;;;;;;;;5056705;28;20397;-83
2022/07/21 10:47:11;;;;;;;14.60;10.15;;;;;;;;;;5056654;28;20079;-84
2022/07/21 10:49:43;;;;;;;11.98;9.95;;;;;;;;;;5056790;28;20040;-83
2022/07/21 10:52:38;;;;;;;14.63;9.57;;;;;;;;;;5056615;28;20110;-86
2022/07/21 10:55:10;;;;;;;13.45;10.30;;;;;;;;;;5055569;28;20485;-85
2022/07/21 10:57:39;;;;;;;14.65;10.10;;;;;;;;;;5055907;28;20037;-84
2022/07/21 11:00:18;;;;;;;14.25;9.68;;;;;;;;;;5038601;28;20044;-85
2022/07/21 11:02:47;;;;;;;14.18;10.07;;;;;;;;;;5039066;28;20033;-85
2022/07/21 11:05:12;;;;;;;17.05;10.30;;;;;;;;;;5056997;28;20107;-85
2022/07/21 11:08:23;;;;;;;13.43;10.60;;;;;;;;;;5041859;28;20029;-85
2022/07/21 11:10:51;;;;;;;16.60;10.13;;;;;;;;;;5055081;28;20096;-82
2022/07/21 11:13:19;;;;;;;14.43;10.63;;;;;;;;;;5047909;28;20036;-85
2022/07/21 11:15:59;;;;;;;15.13;10.40;;;;;;;;;;5039727;28;20026;-85
2022/07/21 11:18:30;;;;;;;13.52;11.00;;;;;;;;;;5038334;28;20095;-86
2022/07/21 11:21:15;;;;;;;13.93;10.27;;;;;;;;;;5040418;28;20087;-86
2022/07/21 11:23:46;;;;;;;16.10;11.27;;;;;;;;;;5040323;28;20036;-86
2022/07/21 11:26:18;;;;;;;17.90;10.95;;;;;;;;;;5039839;28;20041;-85
2022/07/21 11:28:44;;;;;;;15.00;11.20;;;;;;;;;;5040699;28;20048;-85
2022/07/21 11:31:14;;;;;;;17.98;11.23;;;;;;;;;;5039263;28;20056;-85
2022/07/21 11:33:43;;;;;;;15.57;11.20;;;;;;;;;;5040055;28;20033;-85
2022/07/21 11:36:09;;;;;;;14.65;11.10;;;;;;;;;;5038837;28;20051;-85
2022/07/21 11:38:35;;;;;;;15.05;12.02;;;;;;;;;;5039351;28;20030;-85
2022/07/21 11:41:22;;;;;;;18.33;11.30;;;;;;;;;;5039556;28;20040;-85
2022/07/21 11:43:47;;;;;;;17.83;11.52;;;;;;;;;;5038625;28;20084;-85
2022/07/21 11:46:13;;;;;;;16.52;11.75;;;;;;;;;;5039065;28;20021;-85
2022/07/21 11:48:39;;;;;;;18.67;13.10;;;;;;;;;;5039400;28;20029;-85
2022/07/21 11:51:06;;;;;;;19.73;12.30;;;;;;;;;;5039311;28;20093;-85
2022/07/21 11:53:32;;;;;;;17.35;12.52;;;;;;;;;;5021749;28;20038;-84
2022/07/21 11:55:58;;;;;;;16.52;11.98;;;;;;;;;;5021139;28;20206;-84
2022/07/21 11:58:24;;;;;;;19.00;11.85;;;;;;;;;;5020966;28;20032;-85
2022/07/21 12:01:04;;;;;;;19.85;12.45;;;;;;;;;;5021650;28;20064;-85
2022/07/21 12:03:30;;;;;;;16.30;12.18;;;;;;;;;;5039697;28;20041;-84
2022/07/21 12:05:55;;;;;;;14.70;11.27;;;;;;;;;;5020919;28;20067;-85
2022/07/21 12:08:22;;;;;;;16.05;11.80;;;;;;;;;;5039085;28;20045;-85
2022/07/21 12:10:48;;;;;;;15.77;11.30;;;;;;;;;;5039254;28;20465;-85
2022/07/21 12:13:14;;;;;;;16.27;10.50;;;;;;;;;;5041163;28;20510;-85
2022/07/21 12:15:41;;;;;;;13.63;10.68;;;;;;;;;;5036800;28;20037;-84
2022/07/21 12:18:24;;;;;;;16.58;11.68;;;;;;;;;;5038351;28;20615;-84
2022/07/21 12:21:04;;;;;;;12.85;10.48;;;;;;;;;;5020227;28;20037;-84
2022/07/21 12:23:31;;;;;;;14.45;11.70;;;;;;;;;;5037520;28;20037;-84
2022/07/21 12:26:00;;;;;;;17.67;11.52;;;;;;;;;;5037457;28;20026;-84
2022/07/21 12:28:46;;;;;;;13.43;11.48;;;;;;;;;;5038202;28;20119;-83
2022/07/21 12:31:16;;;;;;;14.77;11.38;;;;;;;;;;5020562;28;20068;-84
2022/07/21 12:33:42;;;;;;;14.48;11.90;;;;;;;;;;5038637;28;20034;-84
2022/07/21 12:36:09;;;;;;;18.60;13.25;;;;;;;;;;5038181;28;20033;-84
2022/07/21 12:38:39;;;;;;;16.58;12.15;;;;;;;;;;5020577;28;20033;-84
2022/07/21 12:41:06;;;;;;;18.05;12.50;;;;;;;;;;5020590;28;20033;-83
2022/07/21 12:43:31;;;;;;;18.23;12.32;;;;;;;;;;5038090;28;20029;-86
2022/07/21 12:46:18;;;;;;;17.15;12.32;;;;;;;;;;5042229;28;20087;-84
2022/07/21 12:48:44;;;;;;;20.05;10.98;;;;;;;;;;5025269;28;20038;-84
2022/07/21 12:51:21;;;;;;;14.82;10.70;;;;;;;;;;5024415;28;20037;-84
2022/07/21 12:53:54;;;;;;;16.80;11.88;;;;;;;;;;5024524;28;20034;-84
2022/07/21 12:56:25;;;;;;;16.75;11.57;;;;;;;;;;5041737;28;20029;-86
2022/07/21 12:58:52;;;;;;;15.73;11.70;;;;;;;;;;5042039;28;20409;-84
2022/07/21 13:01:19;;;;;;;16.92;12.02;;;;;;;;;;5040355;28;20040;-83
2022/07/21 13:03:45;;;;;;;19.95;11.52;;;;;;;;;;5041729;28;20037;-83
2022/07/21 13:06:13;;;;;;;15.82;11.60;;;;;;;;;;5040990;28;20072;-83
2022/07/21 13:08:40;;;;;;;13.25;11.10;;;;;;;;;;5023529;28;20025;-84
2022/07/21 13:11:08;;;;;;;18.17;11.35;;;;;;;;;;5027358;28;20034;-83
2022/07/21 13:13:34;;;;;;;17.17;11.38;;;;;;;;;;5029571;28;20081;-83
2022/07/21 13:16:00;;;;;;;15.55;11.40;;;;;;;;;;5028497;28;20089;-84
2022/07/21 13:18:25;;;;;;;16.48;10.27;;;;;;;;;;5046237;28;20418;-84
2022/07/21 13:20:52;;;;;;;18.80;11.40;;;;;;;;;;5029543;28;20029;-83
2022/07/21 13:23:18;;;;;;;15.63;10.80;;;;;;;;;;5029632;28;20045;-83
2022/07/21 13:25:48;;;;;;;14.15;10.45;;;;;;;;;;5046535;28;20067;-83
2022/07/21 13:28:15;;;;;;;15.63;10.50;;;;;;;;;;5045643;28;20049;-83
2022/07/21 13:30:40;;;;;;;15.98;10.13;;;;;;;;;;5029827;28;20041;-83
2022/07/21 13:33:06;;;;;;;15.57;10.95;;;;;;;;;;5047171;28;20040;-84
2022/07/21 13:35:31;;;;;;;14.90;10.88;;;;;;;;;;5041672;28;20057;-84
2022/07/21 13:37:58;;;;;;;14.80;10.48;;;;;;;;;;5051123;28;20083;-86
2022/07/21 13:40:24;;;;;;;13.75;11.10;;;;;;;;;;5035494;28;20025;-84
2022/07/21 13:42:50;;;;;;;14.68;10.13;;;;;;;;;;5045011;28;20044;-82
2022/07/21 13:45:15;;;;;;;14.27;10.93;;;;;;;;;;5048331;28;20037;-85
2022/07/21 13:47:42;;;;;;;17.88;10.27;;;;;;;;;;5039451;28;20079;-83
2022/07/21 13:50:08;;;;;;;13.95;10.52;;;;;;;;;;5039822;28;20110;-84
2022/07/21 13:52:34;;;;;;;13.68;10.13;;;;;;;;;;5058706;28;20490;-86
2022/07/21 13:55:01;;;;;;;12.68;9.95;;;;;;;;;;5039257;28;20035;-86
2022/07/21 13:57:26;;;;;;;11.68;9.70;;;;;;;;;;5058423;28;20033;-84
2022/07/21 13:59:52;;;;;;;14.68;10.07;;;;;;;;;;5041500;28;20397;-86
2022/07/21 14:02:18;;;;;;;13.82;10.50;;;;;;;;;;5040223;28;20493;-86
2022/07/21 14:04:43;;;;;;;12.73;9.73;;;;;;;;;;5039266;28;20067;-87
2022/07/21 14:07:13;;;;;;;13.55;10.55;;;;;;;;;;5039871;28;20119;-87
2022/07/21 14:09:42;;;;;;;14.98;10.85;;;;;;;;;;5057278;28;20041;-86
2022/07/21 14:12:09;;;;;;;14.95;11.02;;;;;;;;;;5040367;28;20537;-87
2022/07/21 14:14:38;;;;;;;15.05;11.30;;;;;;;;;;5029919;28;20026;-86
2022/07/21 14:17:04;;;;;;;15.27;11.77;;;;;;;;;;5034584;28;20104;-87
2022/07/21 14:19:29;;;;;;;15.90;11.68;;;;;;;;;;5059104;28;20536;-87
2022/07/21 14:21:55;;;;;;;13.68;11.13;;;;;;;;;;5041830;28;20029;-87
2022/07/21 14:27:04;;;;;;;13.38;10.85;;;;;;;;;;5060670;28;20268;-86
2022/07/21 14:29:30;;;;;;;15.68;11.38;;;;;;;;;;5043195;28;20021;-86
2022/07/21 14:31:55;;;;;;;14.82;10.25;;;;;;;;;;5060814;28;20107;-86
2022/07/21 14:34:21;;;;;;;13.85;10.02;;;;;;;;;;5043477;28;20031;-86
2022/07/21 14:36:47;;;;;;;13.05;9.77;;;;;;;;;;5060764;28;20489;-86
2022/07/21 14:39:13;;;;;;;12.68;10.40;;;;;;;;;;5065315;28;20044;-86
2022/07/21 14:41:39;;;;;;;13.57;10.48;;;;;;;;;;5067611;28;20131;-86